LDSP/SPU METAR and TAF weather

Enter ICAO airport designator
Station Type Date Time Source
LDSP METAR 2020/07/15 00:30 UTC NOAA

LDSP 150030Z AUTO 33005KT CAVOK 19/10 Q1013


Station Type Date Time Source
LDSP Decoded METAR 2020/07/15 00:30 UTC NOAA

Split / Resnik, Croatia (LDSP) 43-32N 016-18E 21M
Jul 14, 2020 - 08:30 PM EDT / 2020.07.15 0030 UTC
Wind: from the NNW (330 degrees) at 6 MPH (5 KT):0
Visibility: greater than 7 mile(s):0
Temperature: 66 F (19 C)
Dew Point: 50 F (10 C)
Relative Humidity: 55%
Pressure (altimeter): 29.91 in. Hg (1013 hPa)
ob: LDSP 150030Z AUTO 33005KT CAVOK 19/10 Q1013
cycle: 0

Station Type Date Time Source
LDSP TAF 2020/07/14 18:27 UTC NOAA

TAF LDSP 141725Z 1418/1518 23008KT CAVOK TX27/1513Z TN20/1502Z
BECMG 1418/1420 VRB02KT
BECMG 1510/1512 23010KT

Example: see airport list